Time;durP1;ratioP1;P1;durP2;ratioP2;P2;SDS_P1;SDS_P2;PMS_P1;PMS_P2;Temp;Humidity;BMP_temperature;BMP_pressure;BME280_temperature;BME280_humidity;BME280_pressure;Samples;Min_cycle;Max_cycle;Signal;HPM_P1;HPM_P2
2023/07/22 00:02:23;;;;;;;11.35;5.68;;;;;;;25.46;58.61;94599.06;5090442;28;20596;-44
2023/07/22 00:04:52;;;;;;;11.75;5.63;;;;;;;25.31;58.30;94581.22;5090991;28;20268;-43
2023/07/22 00:07:19;;;;;;;13.02;5.97;;;;;;;25.39;58.92;94608.84;5090327;28;20193;-44
2023/07/22 00:09:45;;;;;;;8.60;5.47;;;;;;;25.38;59.03;94609.88;5090597;28;20198;-45
2023/07/22 00:12:12;;;;;;;11.32;5.30;;;;;;;25.34;59.25;94606.94;5090333;28;20726;-44
2023/07/22 00:14:42;;;;;;;8.05;5.28;;;;;;;25.31;59.35;94614.47;5090187;28;20212;-43
2023/07/22 00:17:09;;;;;;;9.10;4.43;;;;;;;25.32;59.96;94613.44;5106942;28;20192;-44
2023/07/22 00:19:36;;;;;;;13.77;6.00;;;;;;;25.31;59.95;94617.09;5110745;28;20190;-44
2023/07/22 00:22:03;;;;;;;10.57;6.13;;;;;;;25.32;60.31;94610.81;5110228;28;20684;-43
2023/07/22 00:24:30;;;;;;;10.63;5.22;;;;;;;25.30;60.21;94613.66;5110720;28;20193;-44
2023/07/22 00:26:57;;;;;;;11.88;5.50;;;;;;;25.25;60.39;94611.72;5110127;28;20196;-44
2023/07/22 00:29:23;;;;;;;10.95;5.55;;;;;;;25.27;60.75;94622.78;5109836;28;20692;-44
2023/07/22 00:31:52;;;;;;;6.72;5.68;;;;;;;25.26;60.91;94615.16;5110282;28;20620;-44
2023/07/22 00:34:19;;;;;;;6.43;5.43;;;;;;;25.22;61.04;94622.69;5110572;28;20641;-44
2023/07/22 00:36:47;;;;;;;9.30;5.57;;;;;;;25.20;61.22;94616.88;5110162;28;20196;-44
2023/07/22 00:39:14;;;;;;;7.85;4.93;;;;;;;25.17;61.41;94606.88;5110827;28;20230;-44
2023/07/22 00:41:43;;;;;;;11.38;5.65;;;;;;;25.17;61.54;94606.06;5108564;28;20303;-45
2023/07/22 00:44:10;;;;;;;6.38;5.13;;;;;;;25.13;61.78;94605.75;5110249;28;20181;-44
2023/07/22 00:46:37;;;;;;;9.05;5.43;;;;;;;25.15;62.15;94622.00;5110523;28;20185;-45
2023/07/22 00:49:07;;;;;;;8.10;5.38;;;;;;;25.16;62.37;94615.72;5110184;28;20231;-44
2023/07/22 00:51:33;;;;;;;10.85;6.00;;;;;;;25.12;62.63;94627.69;5110548;28;20263;-43
2023/07/22 00:54:00;;;;;;;8.43;4.78;;;;;;;25.08;62.69;94625.72;5110066;28;20579;-45
2023/07/22 00:56:27;;;;;;;7.78;4.93;;;;;;;24.91;62.95;94609.94;5110212;28;20204;-44
2023/07/22 00:58:54;;;;;;;9.23;5.40;;;;;;;24.57;63.19;94553.97;5108149;28;20193;-43
2023/07/22 01:01:21;;;;;;;9.55;5.35;;;;;;;25.02;63.19;94622.22;5109986;28;20201;-42
2023/07/22 01:03:48;;;;;;;15.20;5.68;;;;;;;24.94;63.19;94605.03;5109872;28;20189;-44
2023/07/22 01:06:17;;;;;;;8.00;4.65;;;;;;;24.98;63.52;94613.22;5110255;28;20649;-44
2023/07/22 01:08:44;;;;;;;9.95;5.32;;;;;;;24.77;63.90;94584.00;5110435;28;20246;-43
2023/07/22 01:11:11;;;;;;;10.55;5.60;;;;;;;24.91;63.59;94602.06;5109848;28;20185;-43
2023/07/22 01:13:39;;;;;;;12.10;5.88;;;;;;;24.91;63.65;94612.53;5108804;28;20181;-42
2023/07/22 01:16:06;;;;;;;8.32;5.43;;;;;;;24.87;63.72;94599.16;5089656;28;20191;-44
2023/07/22 01:18:33;;;;;;;10.45;5.95;;;;;;;24.85;63.77;94595.16;5089162;28;20250;-44
2023/07/22 01:21:00;;;;;;;7.10;5.80;;;;;;;24.85;64.30;94603.00;5089780;28;20226;-44
2023/07/22 01:23:29;;;;;;;11.98;5.68;;;;;;;24.81;64.37;94607.09;5089700;28;20280;-43
2023/07/22 01:25:57;;;;;;;8.40;6.00;;;;;;;24.78;64.15;94601.31;5089174;28;20185;-44
2023/07/22 01:28:23;;;;;;;11.38;5.60;;;;;;;24.76;64.31;94592.09;5101750;28;20239;-44
2023/07/22 01:30:50;;;;;;;8.40;5.47;;;;;;;24.73;63.89;94592.53;5068722;28;20194;-44
2023/07/22 01:33:17;;;;;;;16.95;6.47;;;;;;;24.71;64.20;94581.53;5069522;28;20186;-44
2023/07/22 01:35:44;;;;;;;10.90;5.10;;;;;;;24.71;64.47;94590.16;5068950;28;20201;-44
2023/07/22 01:38:10;;;;;;;11.35;5.68;;;;;;;24.69;64.95;94584.34;5054995;28;20290;-44
2023/07/22 01:40:39;;;;;;;9.15;5.50;;;;;;;24.65;64.91;94583.19;5049023;28;20260;-44
2023/07/22 01:43:05;;;;;;;16.80;6.20;;;;;;;24.66;64.99;94590.03;5052229;28;20282;-44
2023/07/22 01:45:32;;;;;;;11.18;5.80;;;;;;;24.60;65.23;94585.72;5052881;28;20187;-44
2023/07/22 01:47:59;;;;;;;7.65;5.85;;;;;;;24.55;65.34;94582.19;5052903;28;20574;-44
2023/07/22 01:50:26;;;;;;;10.43;5.78;;;;;;;24.50;65.76;94581.06;5052880;28;20261;-44
2023/07/22 01:52:52;;;;;;;13.73;5.82;;;;;;;24.47;65.77;94576.25;5053032;28;20207;-49
2023/07/22 01:55:19;;;;;;;13.25;5.45;;;;;;;24.39;66.13;94570.56;5053075;28;20282;-44
2023/07/22 01:57:47;;;;;;;11.82;5.93;;;;;;;24.43;66.11;94575.13;5052666;28;20190;-44
2023/07/22 02:00:15;;;;;;;8.85;5.80;;;;;;;24.42;66.53;94576.16;5052730;28;20249;-43
2023/07/22 02:02:42;;;;;;;9.30;5.88;;;;;;;24.42;66.40;94577.97;5052654;28;20207;-44
2023/07/22 02:05:10;;;;;;;17.15;5.60;;;;;;;24.40;66.59;94582.66;5053247;28;20198;-43
2023/07/22 02:07:37;;;;;;;10.68;5.28;;;;;;;24.40;66.87;94577.41;5052411;28;20706;-44
2023/07/22 02:10:04;;;;;;;10.77;5.60;;;;;;;24.39;67.07;94578.41;5052668;28;20203;-44
2023/07/22 02:12:31;;;;;;;10.77;6.38;;;;;;;24.37;67.13;94575.22;5052404;28;20190;-44
2023/07/22 02:14:59;;;;;;;10.25;5.70;;;;;;;24.34;67.03;94575.66;5052637;28;20218;-45
2023/07/22 02:17:25;;;;;;;11.25;5.88;;;;;;;24.32;67.24;94580.34;5052648;28;20198;-44
2023/07/22 02:19:52;;;;;;;10.63;5.57;;;;;;;24.31;67.55;94582.16;5052498;28;20328;-45
2023/07/22 02:22:19;;;;;;;10.15;5.55;;;;;;;24.27;67.67;94586.25;5052051;28;20661;-44
2023/07/22 02:24:46;;;;;;;7.68;5.82;;;;;;;24.25;67.79;94585.66;5052446;28;20202;-43
2023/07/22 02:27:13;;;;;;;10.65;5.93;;;;;;;24.24;68.22;94582.25;5052529;28;20253;-44
2023/07/22 02:29:39;;;;;;;8.00;5.60;;;;;;;23.78;68.04;94521.03;5073180;28;20312;-43
2023/07/22 02:32:09;;;;;;;11.15;5.75;;;;;;;24.22;68.41;94591.31;5092284;28;20201;-44
2023/07/22 02:34:37;;;;;;;9.13;5.63;;;;;;;24.14;68.61;94581.22;5092317;28;20217;-45
2023/07/22 02:37:04;;;;;;;16.50;5.30;;;;;;;24.21;69.46;94589.72;5092330;28;20712;-44
2023/07/22 02:39:31;;;;;;;8.40;6.03;;;;;;;24.17;69.08;94585.97;5092136;28;20205;-44
2023/07/22 02:41:57;;;;;;;8.52;6.00;;;;;;;24.19;69.28;94583.94;5092215;28;20213;-44
2023/07/22 02:44:24;;;;;;;9.60;6.20;;;;;;;24.11;69.61;94592.91;5092414;28;20185;-43
2023/07/22 02:46:51;;;;;;;8.02;5.68;;;;;;;24.12;69.70;94591.09;5095020;28;20253;-44
2023/07/22 02:49:19;;;;;;;12.68;5.82;;;;;;;24.06;69.59;94594.59;5112401;28;20196;-44
2023/07/22 02:51:46;;;;;;;10.43;6.15;;;;;;;24.01;69.92;94603.91;5112200;28;20189;-44
2023/07/22 02:54:13;;;;;;;14.95;6.45;;;;;;;23.96;69.82;94595.13;5111060;28;20238;-43
2023/07/22 02:56:41;;;;;;;8.60;5.90;;;;;;;23.96;70.10;94595.13;5112603;28;20193;-44
2023/07/22 02:59:08;;;;;;;8.40;5.93;;;;;;;23.94;69.97;94603.19;5112440;28;20188;-43
2023/07/22 03:01:35;;;;;;;7.05;5.68;;;;;;;23.95;70.12;94601.38;5110999;28;20282;-43
2023/07/22 03:04:02;;;;;;;10.30;6.05;;;;;;;23.96;70.40;94600.34;5111875;28;20579;-44
2023/07/22 03:06:31;;;;;;;10.20;5.65;;;;;;;23.94;70.70;94592.75;5111809;28;20669;-43
2023/07/22 03:08:58;;;;;;;10.13;6.35;;;;;;;23.95;71.05;94596.94;5112181;28;20189;-44
2023/07/22 03:11:26;;;;;;;9.93;6.00;;;;;;;23.85;70.96;94590.69;5111990;28;20648;-43
2023/07/22 03:13:54;;;;;;;9.82;5.68;;;;;;;23.82;71.19;94601.56;5111914;28;20189;-43
2023/07/22 03:16:21;;;;;;;11.18;6.25;;;;;;;23.80;71.35;94593.97;5107763;28;20269;-43
2023/07/22 03:18:48;;;;;;;14.40;6.55;;;;;;;23.81;71.14;94598.16;5091468;28;20620;-44
2023/07/22 03:21:15;;;;;;;6.90;5.68;;;;;;;23.82;71.28;94601.56;5091231;28;20680;-44
2023/07/22 03:23:43;;;;;;;9.35;5.53;;;;;;;23.82;71.51;94593.72;5091003;28;20549;-44
2023/07/22 03:26:10;;;;;;;12.40;5.35;;;;;;;23.84;71.59;94599.53;5091172;28;20197;-44
2023/07/22 03:28:37;;;;;;;12.18;6.40;;;;;;;23.86;71.65;94605.31;5090918;28;20600;-45
2023/07/22 03:31:04;;;;;;;13.85;6.50;;;;;;;23.86;71.47;94613.16;5090787;28;20189;-45
2023/07/22 03:33:31;;;;;;;8.68;6.55;;;;;;;23.89;71.73;94615.34;5091202;28;20201;-42
2023/07/22 03:35:57;;;;;;;11.45;6.28;;;;;;;23.90;71.59;94612.50;5090627;28;20197;-43
2023/07/22 03:38:24;;;;;;;10.60;6.47;;;;;;;23.95;71.74;94609.22;5091305;28;20618;-45
2023/07/22 03:40:53;;;;;;;11.40;6.60;;;;;;;23.96;71.68;94619.47;5090786;28;20659;-43
2023/07/22 03:43:20;;;;;;;11.90;6.60;;;;;;;23.99;71.63;94624.22;5091203;28;20236;-46
2023/07/22 03:45:47;;;;;;;16.10;6.43;;;;;;;23.99;71.65;94626.03;5093562;28;20197;-44
2023/07/22 03:48:14;;;;;;;7.65;5.97;;;;;;;24.08;71.57;94629.13;5111565;28;20193;-44
2023/07/22 03:50:41;;;;;;;10.02;6.82;;;;;;;24.14;71.38;94634.28;5110785;28;20193;-44
2023/07/22 03:53:07;;;;;;;9.32;6.00;;;;;;;24.20;71.24;94633.38;5111176;28;20184;-44
2023/07/22 03:55:34;;;;;;;9.18;6.85;;;;;;;24.29;70.91;94641.69;5110762;28;20193;-44
2023/07/22 03:58:02;;;;;;;15.30;7.00;;;;;;;24.38;70.74;94648.22;5110589;28;20209;-44
2023/07/22 04:00:29;;;;;;;9.20;6.65;;;;;;;24.46;70.09;94647.09;5110722;28;20649;-43
2023/07/22 04:02:56;;;;;;;11.90;6.30;;;;;;;24.53;69.89;94645.97;5110234;28;20562;-43
2023/07/22 04:05:22;;;;;;;13.98;6.65;;;;;;;24.54;69.57;94638.94;5090376;28;20205;-44
2023/07/22 04:07:49;;;;;;;11.50;5.95;;;;;;;24.56;68.77;94644.72;5090263;28;20296;-44
2023/07/22 04:10:16;;;;;;;11.23;6.22;;;;;;;24.49;68.64;94630.97;5090262;28;20730;-42
2023/07/22 04:12:43;;;;;;;9.60;6.00;;;;;;;24.50;68.85;94645.63;5090198;28;20193;-45
2023/07/22 04:15:12;;;;;;;11.10;6.32;;;;;;;24.51;69.16;94645.38;5090686;28;20193;-43
2023/07/22 04:17:39;;;;;;;8.88;5.72;;;;;;;24.60;68.95;94638.00;5089955;28;20616;-42
2023/07/22 04:20:09;;;;;;;8.63;5.85;;;;;;;24.66;68.71;94646.78;5110581;28;20193;-42
2023/07/22 04:22:35;;;;;;;9.27;5.95;;;;;;;24.70;68.58;94637.47;5110641;28;20221;-43
2023/07/22 04:25:02;;;;;;;9.18;5.93;;;;;;;24.77;68.55;94641.53;5110679;28;20197;-44
2023/07/22 04:27:29;;;;;;;8.05;6.10;;;;;;;24.86;67.65;94641.22;5110156;28;20280;-45
2023/07/22 04:29:56;;;;;;;9.50;5.93;;;;;;;24.92;67.77;94653.41;5110225;28;20277;-44
2023/07/22 04:32:24;;;;;;;9.38;5.88;;;;;;;24.94;67.87;94659.19;5091010;28;20572;-43
2023/07/22 04:34:51;;;;;;;9.27;5.68;;;;;;;25.05;68.04;94668.88;5089744;28;20684;-46
2023/07/22 04:37:17;;;;;;;7.07;5.68;;;;;;;25.12;67.51;94666.16;5090284;28;20190;-45
2023/07/22 04:39:49;;;;;;;11.50;6.68;;;;;;;25.20;67.92;94658.75;5089569;28;20705;-43
2023/07/22 04:42:16;;;;;;;11.57;6.40;;;;;;;25.31;67.11;94651.91;5089777;28;20228;-45
2023/07/22 04:44:44;;;;;;;10.85;5.90;;;;;;;25.47;67.08;94666.09;5096255;28;20249;-45
2023/07/22 04:47:10;;;;;;;11.25;6.13;;;;;;;25.46;66.44;94662.69;5110466;28;20181;-46
2023/07/22 04:49:39;;;;;;;10.48;5.43;;;;;;;25.43;66.39;94662.34;5110989;28;20189;-45
2023/07/22 04:52:07;;;;;;;6.25;5.35;;;;;;;25.37;66.39;94664.06;5110127;28;20629;-43
2023/07/22 04:54:34;;;;;;;12.10;5.75;;;;;;;25.40;66.25;94668.88;5109783;28;20621;-44
2023/07/22 04:57:01;;;;;;;10.65;5.72;;;;;;;25.44;66.71;94658.72;5106757;28;20207;-46
2023/07/22 04:59:28;;;;;;;9.85;6.05;;;;;;;25.51;66.79;94662.78;5089329;28;20242;-45
2023/07/22 05:01:55;;;;;;;15.15;5.93;;;;;;;25.63;66.11;94667.22;5089460;28;20201;-44
2023/07/22 05:04:21;;;;;;;12.57;6.20;;;;;;;25.75;66.38;94671.41;5095607;28;20193;-44
2023/07/22 05:06:50;;;;;;;10.57;5.60;;;;;;;25.86;65.82;94679.47;5109715;28;20195;-42
2023/07/22 05:09:16;;;;;;;11.55;6.65;;;;;;;25.95;65.82;94676.28;5109708;28;20197;-43
2023/07/22 05:11:43;;;;;;;9.68;5.95;;;;;;;26.06;64.76;94684.31;5109506;28;20196;-44
2023/07/22 05:14:10;;;;;;;11.63;7.35;;;;;;;26.09;64.68;94683.84;5110249;28;20192;-44
2023/07/22 05:16:36;;;;;;;9.15;6.72;;;;;;;26.17;64.79;94683.47;5105731;28;20208;-45
2023/07/22 05:19:04;;;;;;;16.35;7.50;;;;;;;26.33;64.47;94684.53;5093934;28;20193;-43
2023/07/22 05:21:31;;;;;;;12.73;7.38;;;;;;;26.52;63.86;94681.50;5093336;28;20197;-43
2023/07/22 05:23:59;;;;;;;11.75;7.07;;;;;;;26.78;63.05;94679.28;5093191;28;20301;-43
2023/07/22 05:26:26;;;;;;;11.43;6.35;;;;;;;26.93;62.46;94679.50;5094155;28;20186;-44
2023/07/22 05:28:53;;;;;;;11.20;7.13;;;;;;;27.07;61.66;94687.84;5093097;28;20217;-43
2023/07/22 05:31:20;;;;;;;10.20;6.53;;;;;;;27.12;61.18;94674.03;5095063;28;20216;-44
2023/07/22 05:33:46;;;;;;;8.60;6.90;;;;;;;27.46;60.50;94682.63;5093302;28;20189;-44
2023/07/22 05:36:13;;;;;;;12.40;7.28;;;;;;;27.64;59.51;94692.88;5094308;28;20186;-43
2023/07/22 05:38:40;;;;;;;12.90;7.68;;;;;;;27.73;59.38;94695.88;5092821;28;20759;-44
2023/07/22 05:41:08;;;;;;;8.68;7.05;;;;;;;27.85;59.15;94691.31;5093323;28;20193;-44
2023/07/22 05:43:35;;;;;;;9.93;6.38;;;;;;;27.99;58.62;94699.59;5108721;28;20671;-43
2023/07/22 05:46:02;;;;;;;10.55;7.40;;;;;;;28.12;58.22;94701.06;5113192;28;20250;-46
2023/07/22 05:48:28;;;;;;;13.70;7.13;;;;;;;28.24;58.69;94699.88;5111824;28;20194;-43
2023/07/22 05:50:55;;;;;;;13.13;6.80;;;;;;;28.45;58.68;94695.66;5103877;28;20189;-43
2023/07/22 05:53:22;;;;;;;8.45;6.28;;;;;;;28.57;57.52;94669.16;5093893;28;20239;-45
2023/07/22 05:55:49;;;;;;;17.75;7.28;;;;;;;28.95;57.33;94693.69;5093061;28;20238;-45
2023/07/22 05:58:18;;;;;;;9.93;6.57;;;;;;;29.38;56.33;94694.50;5093066;28;20203;-46
2023/07/22 06:00:45;;;;;;;9.77;6.05;;;;;;;29.75;54.84;94694.47;5096959;28;20272;-45
2023/07/22 06:03:11;;;;;;;8.65;7.07;;;;;;;29.94;54.39;94694.78;5112328;28;20228;-44
2023/07/22 06:05:38;;;;;;;9.43;6.63;;;;;;;30.11;53.97;94707.78;5092909;28;20602;-44
2023/07/22 06:08:05;;;;;;;12.70;6.78;;;;;;;30.07;53.68;94707.50;5094513;28;20181;-45
2023/07/22 06:10:32;;;;;;;12.65;7.50;;;;;;;30.21;53.25;94716.53;5097704;28;20192;-45
2023/07/22 06:12:59;;;;;;;14.20;6.75;;;;;;;30.47;52.76;94708.66;5099584;28;20193;-46
2023/07/22 06:15:27;;;;;;;9.68;7.80;;;;;;;30.91;51.76;94726.69;5111710;28;20211;-44
2023/07/22 06:17:54;;;;;;;15.57;7.70;;;;;;;30.95;51.45;94736.44;5112907;28;20292;-44
2023/07/22 06:20:21;;;;;;;8.02;7.13;;;;;;;31.04;51.23;94736.72;5112562;28;20185;-45
2023/07/22 06:22:48;;;;;;;13.70;7.05;;;;;;;31.07;51.26;94730.91;5112525;28;20240;-45
2023/07/22 06:25:14;;;;;;;12.90;7.00;;;;;;;31.10;50.84;94738.31;5112345;28;20874;-45
2023/07/22 06:27:41;;;;;;;11.88;7.63;;;;;;;31.08;50.95;94734.34;5110598;28;20185;-44
2023/07/22 06:30:09;;;;;;;10.80;7.22;;;;;;;31.12;51.01;94738.81;5091816;28;20237;-45
2023/07/22 06:32:38;;;;;;;12.73;7.22;;;;;;;31.17;51.25;94733.53;5092350;28;20705;-44
2023/07/22 06:35:05;;;;;;;12.77;7.15;;;;;;;31.29;51.57;94737.78;5092028;28;20197;-43
2023/07/22 06:37:32;;;;;;;18.13;7.18;;;;;;;31.46;50.95;94738.28;5092216;28;20193;-44
2023/07/22 06:39:59;;;;;;;12.70;6.38;;;;;;;31.61;50.84;94738.28;5096931;28;20563;-45
2023/07/22 06:42:27;;;;;;;11.40;7.78;;;;;;;31.89;50.02;94742.16;5092046;28;20190;-44
2023/07/22 06:44:54;;;;;;;11.57;7.03;;;;;;;32.04;49.75;94743.16;5109493;28;20627;-43
2023/07/22 06:47:20;;;;;;;10.45;7.38;;;;;;;32.34;48.63;94744.88;5112020;28;20687;-44
2023/07/22 06:49:48;;;;;;;12.52;6.85;;;;;;;32.27;48.16;94745.19;5112141;28;20657;-45
2023/07/22 06:52:15;;;;;;;8.00;6.40;;;;;;;32.52;48.61;94738.22;5112299;28;20177;-45
2023/07/22 06:54:42;;;;;;;10.68;7.10;;;;;;;32.80;47.40;94739.34;5105532;28;20307;-45
2023/07/22 06:57:09;;;;;;;9.75;6.28;;;;;;;32.96;45.79;94740.84;5091361;28;20200;-45
2023/07/22 06:59:36;;;;;;;11.00;6.53;;;;;;;32.74;46.50;94740.44;5110283;28;20244;-44
2023/07/22 07:02:04;;;;;;;13.73;6.38;;;;;;;32.62;47.23;94730.97;5111699;28;20250;-44
2023/07/22 07:04:31;;;;;;;12.65;6.95;;;;;;;32.82;47.06;94732.69;5111880;28;20220;-44
2023/07/22 07:06:59;;;;;;;9.05;6.90;;;;;;;33.12;46.35;94731.69;5110044;28;20197;-44
2023/07/22 07:09:26;;;;;;;16.25;7.40;;;;;;;33.08;47.21;94729.88;5090866;28;20193;-45
2023/07/22 07:11:56;;;;;;;16.98;6.85;;;;;;;33.34;46.41;94725.94;5091420;28;20576;-44
2023/07/22 07:14:23;;;;;;;12.55;6.65;;;;;;;33.68;45.68;94722.44;5091244;28;20234;-45
2023/07/22 07:16:50;;;;;;;10.07;7.13;;;;;;;34.01;45.06;94726.03;5091072;28;20604;-45
2023/07/22 07:19:17;;;;;;;10.23;7.00;;;;;;;34.24;44.74;94718.31;5091166;28;20565;-45
2023/07/22 07:21:44;;;;;;;11.52;8.07;;;;;;;34.07;44.03;94669.19;5090896;28;20659;-45
2023/07/22 07:24:12;;;;;;;16.25;7.60;;;;;;;34.61;43.25;94723.66;5091058;28;20781;-44
2023/07/22 07:26:38;;;;;;;13.77;6.70;;;;;;;34.83;43.01;94716.97;5091510;28;20186;-44
2023/07/22 07:29:05;;;;;;;15.77;7.63;;;;;;;35.08;42.41;94718.47;5090490;28;20226;-44
2023/07/22 07:31:32;;;;;;;13.25;7.28;;;;;;;34.87;41.77;94715.31;5091198;28;20189;-43
2023/07/22 07:33:59;;;;;;;10.55;7.10;;;;;;;34.72;42.14;94718.19;5090936;28;20196;-44
2023/07/22 07:36:26;;;;;;;13.25;6.97;;;;;;;34.82;42.54;94718.06;5091164;28;20198;-44
2023/07/22 07:38:52;;;;;;;11.55;7.32;;;;;;;34.96;42.41;94708.25;5090365;28;20258;-43
2023/07/22 07:41:20;;;;;;;11.85;7.32;;;;;;;35.17;41.90;94709.53;5091123;28;20185;-44
2023/07/22 07:43:47;;;;;;;11.50;7.75;;;;;;;35.32;41.61;94712.97;5090620;28;20229;-44
2023/07/22 07:46:18;;;;;;;10.20;7.50;;;;;;;35.35;41.43;94705.22;5090639;28;20675;-46
2023/07/22 07:48:46;;;;;;;13.05;7.65;;;;;;;35.45;40.83;94709.59;5090832;28;20221;-45
2023/07/22 07:51:14;;;;;;;10.80;7.20;;;;;;;35.32;41.67;94699.69;5090797;28;20185;-44
2023/07/22 07:53:41;;;;;;;17.10;7.45;;;;;;;35.32;41.43;94676.56;5090665;28;20190;-43
2023/07/22 07:56:08;;;;;;;9.85;7.53;;;;;;;35.40;41.64;94701.66;5091014;28;20216;-44
2023/07/22 07:58:36;;;;;;;13.57;8.05;;;;;;;35.11;42.55;94696.63;5090629;28;20228;-45
2023/07/22 08:01:03;;;;;;;15.25;7.45;;;;;;;35.13;42.34;94699.75;5090738;28;20259;-44
2023/07/22 08:03:30;;;;;;;8.65;6.88;;;;;;;34.57;42.07;94591.72;5090900;28;20669;-43
2023/07/22 08:05:57;;;;;;;11.20;8.25;;;;;;;35.45;41.18;94709.59;5090487;28;20193;-44
2023/07/22 08:08:24;;;;;;;9.90;7.20;;;;;;;35.49;40.99;94697.28;5090598;28;20193;-44
2023/07/22 08:10:59;;;;;;;12.15;7.25;;;;;;;35.61;41.15;94689.59;5090440;28;20319;-44
2023/07/22 08:13:26;;;;;;;14.18;8.43;;;;;;;35.82;40.64;94692.66;5090430;28;20186;-44
2023/07/22 08:15:54;;;;;;;12.23;7.90;;;;;;;35.98;40.58;94700.38;5090272;28;20292;-46
2023/07/22 08:18:21;;;;;;;10.02;7.45;;;;;;;36.00;40.51;94700.84;5090622;28;20194;-46
2023/07/22 08:20:48;;;;;;;13.23;7.13;;;;;;;36.12;40.42;94707.25;5090180;28;20198;-45
2023/07/22 08:23:15;;;;;;;10.85;8.15;;;;;;;36.28;40.13;94701.59;5090510;28;20296;-44
2023/07/22 08:25:42;;;;;;;17.25;8.15;;;;;;;36.21;40.09;94698.53;5090271;28;20570;-45
2023/07/22 08:28:09;;;;;;;10.25;7.53;;;;;;;36.10;40.60;94698.00;5090086;28;20193;-44
2023/07/22 08:30:36;;;;;;;13.07;7.97;;;;;;;36.18;40.49;94694.59;5090162;28;20723;-45
2023/07/22 08:33:04;;;;;;;13.07;7.50;;;;;;;36.32;40.00;94695.38;5090123;28;20193;-44
2023/07/22 08:35:31;;;;;;;11.73;7.95;;;;;;;36.29;40.09;94687.97;5089942;28;20182;-46
2023/07/22 08:37:57;;;;;;;13.35;7.72;;;;;;;36.26;40.50;94691.22;5090296;28;20193;-45
2023/07/22 08:40:24;;;;;;;11.85;8.05;;;;;;;36.33;40.40;94677.50;5089800;28;20657;-45
2023/07/22 08:42:51;;;;;;;11.23;8.75;;;;;;;36.14;40.37;94643.00;5090037;28;20198;-45
2023/07/22 08:45:20;;;;;;;13.88;7.72;;;;;;;36.15;40.25;94663.25;5090193;28;20193;-45
2023/07/22 08:47:48;;;;;;;12.32;7.45;;;;;;;36.04;40.63;94635.25;5090931;28;20664;-45
2023/07/22 08:50:21;;;;;;;14.35;8.05;;;;;;;36.29;40.12;94658.66;5089480;28;20202;-44
2023/07/22 08:52:49;;;;;;;14.50;7.85;;;;;;;36.38;39.96;94651.53;5089129;28;20280;-45
2023/07/22 08:55:16;;;;;;;14.10;7.10;;;;;;;36.43;39.82;94653.28;5089615;28;20254;-44
2023/07/22 08:57:43;;;;;;;10.98;7.18;;;;;;;36.47;40.21;94650.84;5089548;28;20247;-46
2023/07/22 09:00:11;;;;;;;18.33;8.48;;;;;;;36.50;39.28;94650.25;5089664;28;20280;-43
2023/07/22 09:02:39;;;;;;;10.57;6.85;;;;;;;36.52;39.43;94648.84;5089563;28;20565;-44
2023/07/22 09:05:07;;;;;;;12.00;8.13;;;;;;;36.55;38.83;94647.47;5089857;28;20313;-46
2023/07/22 09:07:37;;;;;;;12.60;7.57;;;;;;;36.57;39.13;94643.41;5089572;28;20676;-44
2023/07/22 09:10:05;;;;;;;11.43;7.95;;;;;;;36.58;38.69;94638.88;5089529;28;20193;-44
2023/07/22 09:12:39;;;;;;;11.25;7.30;;;;;;;36.60;38.91;94639.34;5089424;28;20193;-44
2023/07/22 09:15:09;;;;;;;11.98;7.93;;;;;;;36.63;39.05;94636.84;5089756;28;20185;-45
2023/07/22 09:17:36;;;;;;;15.35;7.90;;;;;;;36.64;38.65;94640.31;5089678;28;20190;-45
2023/07/22 09:20:04;;;;;;;14.38;7.40;;;;;;;36.62;38.60;94637.16;5089659;28;20200;-45
2023/07/22 09:22:32;;;;;;;14.15;8.13;;;;;;;36.63;38.80;94636.06;5089116;28;20228;-45
2023/07/22 09:25:16;;;;;;;13.25;7.72;;;;;;;36.55;38.68;94632.25;5089605;28;20290;-44
2023/07/22 09:27:42;;;;;;;17.38;8.30;;;;;;;36.41;38.93;94628.84;5089194;28;20224;-44
2023/07/22 09:30:22;;;;;;;14.40;7.78;;;;;;;36.41;38.87;94626.97;5089324;28;20312;-43
2023/07/22 09:32:49;;;;;;;15.60;7.28;;;;;;;36.42;38.79;94622.41;5089435;28;20192;-44
2023/07/22 09:35:16;;;;;;;13.18;7.28;;;;;;;36.31;38.88;94607.75;5089190;28;20194;-43
2023/07/22 09:37:42;;;;;;;14.80;8.50;;;;;;;36.46;38.54;94618.09;5089262;28;20632;-44
2023/07/22 09:40:17;;;;;;;18.40;8.07;;;;;;;36.62;38.67;94621.19;5089315;28;20190;-45
2023/07/22 09:42:46;;;;;;;10.65;7.10;;;;;;;36.78;38.83;94617.03;5089035;28;20216;-44
2023/07/22 09:45:13;;;;;;;16.45;7.30;;;;;;;36.80;38.22;94620.19;5089123;28;20676;-43
2023/07/22 09:47:43;;;;;;;10.98;7.25;;;;;;;36.60;38.56;94610.81;5089094;28;20186;-46
2023/07/22 09:50:13;;;;;;;12.75;7.00;;;;;;;36.54;39.29;94609.38;5089557;28;20193;-44
2023/07/22 09:52:45;;;;;;;11.82;6.78;;;;;;;36.48;39.19;94604.44;5089311;28;20236;-44
2023/07/22 09:55:13;;;;;;;11.07;7.82;;;;;;;36.42;39.21;94604.56;5089191;28;20193;-45
2023/07/22 09:57:45;;;;;;;19.73;7.10;;;;;;;36.41;38.38;94599.53;5089146;28;20213;-45
2023/07/22 10:00:14;;;;;;;17.63;7.22;;;;;;;36.37;38.50;94614.56;5089460;28;20230;-46
2023/07/22 10:02:43;;;;;;;12.40;7.03;;;;;;;36.41;38.43;94602.19;5089918;28;20208;-44
2023/07/22 10:05:13;;;;;;;16.90;7.13;;;;;;;36.31;38.38;94591.75;5092834;28;20221;-45
2023/07/22 10:07:45;;;;;;;18.80;8.32;;;;;;;36.41;39.10;94588.88;5092697;28;20280;-44
2023/07/22 10:10:13;;;;;;;18.10;8.77;;;;;;;36.58;38.84;94599.69;5092941;28;20225;-45
2023/07/22 10:12:43;;;;;;;19.98;8.30;;;;;;;36.62;38.59;94607.84;5092631;28;20716;-42
2023/07/22 10:15:11;;;;;;;20.05;8.43;;;;;;;36.67;37.72;94602.41;5093162;28;20193;-45
2023/07/22 10:17:39;;;;;;;15.35;7.28;;;;;;;36.67;37.60;94595.19;5094701;28;20193;-45
2023/07/22 10:20:07;;;;;;;15.32;6.93;;;;;;;36.67;37.75;94597.06;5094751;28;20584;-44
2023/07/22 10:22:37;;;;;;;13.02;7.07;;;;;;;36.71;38.07;94594.59;5092711;28;20208;-46
2023/07/22 10:25:06;;;;;;;16.98;7.88;;;;;;;36.79;38.00;94589.28;5093589;28;20249;-46
2023/07/22 10:27:34;;;;;;;13.93;6.97;;;;;;;36.86;38.22;94586.97;5094025;28;20315;-44
2023/07/22 10:30:03;;;;;;;17.10;6.10;;;;;;;36.64;36.26;94541.69;5092917;28;20700;-46
2023/07/22 10:32:34;;;;;;;18.75;5.97;;;;;;;37.02;35.56;94581.28;5092614;28;20185;-45
2023/07/22 10:35:01;;;;;;;18.73;5.80;;;;;;;37.00;35.64;94584.22;5092397;28;20239;-44
2023/07/22 10:37:32;;;;;;;18.17;5.45;;;;;;;37.09;35.72;94582.41;5092312;28;20228;-46
2023/07/22 10:40:01;;;;;;;15.82;5.75;;;;;;;37.21;35.41;94575.69;5092301;28;20193;-45
2023/07/22 10:42:28;;;;;;;13.65;5.88;;;;;;;37.38;35.27;94573.84;5092699;28;20182;-44
2023/07/22 10:44:55;;;;;;;17.83;5.70;;;;;;;37.37;34.24;94574.94;5093600;28;20613;-45
2023/07/22 10:47:37;;;;;;;28.73;7.10;;;;;;;37.41;35.19;94575.94;5093385;28;20615;-45
2023/07/22 10:50:09;;;;;;;15.82;6.18;;;;;;;37.50;35.19;94567.94;5092721;28;20802;-46
2023/07/22 10:52:42;;;;;;;18.27;6.40;;;;;;;37.52;34.47;94559.63;5092343;28;20665;-43
2023/07/22 10:55:16;;;;;;;20.42;6.15;;;;;;;37.51;34.80;94553.50;5092338;28;20281;-44
2023/07/22 10:57:50;;;;;;;20.30;6.03;;;;;;;37.64;34.27;94570.47;5092001;28;20193;-44
2023/07/22 11:00:21;;;;;;;19.48;6.55;;;;;;;37.67;34.19;94576.00;5091820;28;20592;-53
2023/07/22 11:03:10;;;;;;;16.35;5.93;;;;;;;37.63;33.69;94542.22;5091702;28;20196;-44
2023/07/22 11:05:55;;;;;;;13.88;5.63;;;;;;;37.62;34.05;94560.13;5092249;28;20213;-45
2023/07/22 11:08:38;;;;;;;20.00;6.68;;;;;;;37.67;34.27;94561.84;5091872;28;20577;-45
2023/07/22 11:11:05;;;;;;;16.27;6.55;;;;;;;37.71;33.72;94554.03;5091437;28;20202;-45
2023/07/22 11:13:39;;;;;;;19.90;5.97;;;;;;;37.69;33.83;94554.31;5091787;28;20206;-45
2023/07/22 11:16:10;;;;;;;25.00;6.47;;;;;;;37.72;33.37;94545.69;5091012;28;20292;-45
2023/07/22 11:18:39;;;;;;;14.80;5.40;;;;;;;37.77;33.41;94550.88;5091700;28;20657;-43
2023/07/22 11:21:10;;;;;;;22.50;6.32;;;;;;;37.74;34.06;94545.38;5091218;28;20668;-45
2023/07/22 11:23:37;;;;;;;20.13;6.40;;;;;;;37.84;33.86;94555.75;5091334;28;20258;-45
2023/07/22 11:26:04;;;;;;;18.52;5.85;;;;;;;37.89;33.44;94551.06;5091440;28;20266;-45
2023/07/22 11:28:31;;;;;;;23.98;6.15;;;;;;;37.97;33.58;94551.38;5091343;28;20193;-45
2023/07/22 11:31:00;;;;;;;24.48;6.85;;;;;;;37.98;33.91;94543.06;5091507;28;20259;-44